• Join FlightAware (Why Join?)
  • Login
  • US Flag 
09:35AM EDT


 

Airport Tracker/Info


-or-


 

Live Flight TrackerFlight Track Log ✈ FLG4262 ✈ 09-Apr-2014 ✈ KDTW - KBGM

Flight Track Log - Related Links

Times and Time Zones

All times are in EDT time to prevent confusion due to time zone crossing. See the FLG4262 flight status page for this flight to view local times or setup timezone preferences in your user account.

Time Position Orientation Groundspeed Altitude Reporting Facility
EDT Latitude Longitude Course Direction KTS MPH feet Rate Location/Type
03:51PM 42.2075 -83.3503 178° South 148 170 1,300  Level Cleveland Center
03:53PM 42.1364 -83.3461 178° South 225 259 4,300 2,340 Climbing Cleveland Center
03:54PM 42.0881 -83.3433 178° South 230 265 6,300 2,820 Climbing Cleveland Center
03:55PM 42.0625 -83.2456 109° East 291 335 9,800 1,740 Climbing Cleveland Center
03:56PM 42.0961 -83.1653 61° Northeast 306 352 10,000 1,560 Climbing Cleveland Center
04:00PM 42.2778 -82.6861 87° East 362 417 17,700 1,380 Climbing Cleveland Center
04:03PM 42.2722 -82.2025 90° East 443 510 20,400 780 Climbing Cleveland Center
04:05PM 42.1498 -81.8627 87° East  Level Estimated
04:05PM 42.2669 -81.8286 91° East 465 535 21,900  Level Cleveland Center
04:06PM 42.2631 -81.6469 92° East 475 547 22,500 540 Climbing Cleveland Center
04:07PM 42.2603 -81.4644 91° East 477 549 23,100 600 Climbing Cleveland Center
04:08PM 42.2564 -81.2531 91° East 477 549 23,800 600 Climbing Cleveland Center
04:09PM 42.2508 -81.0725 92° East 477 549 24,400 480 Climbing Cleveland Center
04:10PM 42.2481 -80.8894 91° East 478 550 24,900 240 Climbing Cleveland Center
04:11PM 42.2422 -80.7042 92° East 484 557 25,000  Climbing Cleveland Center
04:12PM 42.2381 -80.5181 92° East 489 563 25,000  Level Cleveland Center
04:13PM 42.2325 -80.3294 92° East 494 568 25,000  Level Cleveland Center
04:14PM 42.2261 -80.1383 93° East 505 581 25,000 -540 Level Cleveland Center
04:15PM 42.2194 -79.9339 92° East 500 575 24,000 -360 Descending Cleveland Center
04:17PM 42.2050 -79.5681 93° East 493 567 24,000  Level Cleveland Center
04:18PM 42.1972 -79.3450 93° East 494 568 24,000  Level Cleveland Center
04:19PM 42.1894 -79.1592 93° East 497 572 24,000  Level Cleveland Center
04:22PM 42.1950 -78.7811 89° East 493 567 24,000  Level Cleveland Center
04:23PM 42.1978 -78.5972 89° East 493 567 24,000  Level Cleveland Center
04:24PM 42.2011 -78.4142 89° East 492 566 24,000 -360 Level Cleveland Center
04:26PM 42.2003 -78.1454 90° East  Level FlightAware Approximate
04:27PM 42.2069 -77.8356 90° East 485 558 22,600  Level Cleveland Center
04:29PM 42.2086 -77.4061 91° East 476 548 20,200 -1,080 Descending New York Center
04:30PM 42.2097 -77.2353 89° East 482 555 18,900 -1,860 Descending New York Center
04:31PM 42.2103 -77.1125 90° East 450 518 17,100 -2,280 Descending Cleveland Center
04:33PM 42.2108 -76.7956 90° East 427 491 12,800 -2,100 Descending Cleveland Center
04:36PM 42.1886 -76.3881 90° East 308 354 6,400 -1,980 Descending Cleveland Center
04:37PM 42.1533 -76.2883 115° Southeast 299 344 4,800 -1,200 Descending Cleveland Center
04:38PM 42.1253 -76.1767 109° East 287 330 4,000 -360 Descending Cleveland Center
04:40PM 42.1025 -75.9864 90° East 252 290 3,800 -120 Descending New York Center